createdAt,value
2022-10-13T00:01:21.639Z,18.20
2022-10-13T00:03:48.017Z,18.19
2022-10-13T00:06:14.641Z,18.16
2022-10-13T00:08:40.894Z,18.15
2022-10-13T00:11:07.154Z,18.13
2022-10-13T00:13:33.834Z,18.13
2022-10-13T00:16:00.046Z,18.11
2022-10-13T00:18:26.382Z,18.09
2022-10-13T00:20:52.713Z,18.08
2022-10-13T00:23:19.233Z,18.07
2022-10-13T00:25:45.429Z,18.06
2022-10-13T00:28:11.655Z,18.05
2022-10-13T00:30:38.979Z,18.03
2022-10-13T00:33:05.147Z,18.02
2022-10-13T00:35:31.384Z,18.01
2022-10-13T00:37:57.674Z,17.99
2022-10-13T00:40:24.007Z,17.98
2022-10-13T00:42:50.196Z,17.95
2022-10-13T00:45:16.636Z,17.92
2022-10-13T00:47:42.866Z,17.91
2022-10-13T00:50:09.109Z,17.89
2022-10-13T00:52:35.325Z,17.87
2022-10-13T00:55:01.601Z,17.85
2022-10-13T00:57:31.169Z,17.83
2022-10-13T00:59:57.454Z,17.81
2022-10-13T01:02:23.847Z,17.80
2022-10-13T01:04:50.083Z,17.78
2022-10-13T01:07:16.320Z,17.76
2022-10-13T01:09:42.515Z,17.75
2022-10-13T01:12:08.682Z,17.73
2022-10-13T01:14:34.899Z,17.71
2022-10-13T01:17:01.239Z,17.70
2022-10-13T01:19:27.575Z,17.68
2022-10-13T01:21:53.967Z,17.67
2022-10-13T01:24:20.221Z,17.66
2022-10-13T01:26:46.599Z,17.65
2022-10-13T01:29:13.741Z,17.63
2022-10-13T01:31:40.015Z,17.63
2022-10-13T01:34:06.301Z,17.62
2022-10-13T01:36:32.512Z,17.60
2022-10-13T01:38:58.748Z,17.58
2022-10-13T01:41:25.026Z,17.57
2022-10-13T01:43:51.528Z,17.56
2022-10-13T01:46:17.805Z,17.54
2022-10-13T01:48:44.183Z,17.53
2022-10-13T01:51:10.564Z,17.52
2022-10-13T01:53:36.867Z,17.52
2022-10-13T01:56:03.190Z,17.50
2022-10-13T01:58:29.606Z,17.50
2022-10-13T02:00:56.231Z,17.49
2022-10-13T02:03:22.624Z,17.49
2022-10-13T02:05:48.831Z,17.47
2022-10-13T02:08:15.008Z,17.46
2022-10-13T02:10:41.240Z,17.44
2022-10-13T02:13:07.437Z,17.45
2022-10-13T02:15:33.636Z,17.44
2022-10-13T02:18:00.133Z,17.43
2022-10-13T02:20:26.544Z,17.43
2022-10-13T02:22:52.737Z,17.43
2022-10-13T02:25:18.990Z,17.41
2022-10-13T02:27:45.124Z,17.40
2022-10-13T02:30:11.388Z,17.39
2022-10-13T02:32:37.616Z,17.39
2022-10-13T02:35:03.821Z,17.38
2022-10-13T02:37:30.209Z,17.36
2022-10-13T02:39:56.416Z,17.36
2022-10-13T02:42:23.363Z,17.34
2022-10-13T02:44:49.756Z,17.33
2022-10-13T02:47:16.037Z,17.32
2022-10-13T02:49:42.308Z,17.31
2022-10-13T02:52:08.616Z,17.31
2022-10-13T02:54:35.139Z,17.29
2022-10-13T02:57:01.460Z,17.27
2022-10-13T02:59:27.875Z,17.24
2022-10-13T03:01:54.060Z,17.24
2022-10-13T03:04:20.402Z,17.22
2022-10-13T03:06:46.662Z,17.21
2022-10-13T03:09:12.855Z,17.20
2022-10-13T03:11:39.031Z,17.18
2022-10-13T03:14:05.222Z,17.17
2022-10-13T03:16:31.457Z,17.15
2022-10-13T03:18:57.780Z,17.14
2022-10-13T03:21:24.004Z,17.12
2022-10-13T03:23:50.223Z,17.11
2022-10-13T03:26:16.480Z,17.11
2022-10-13T03:28:42.767Z,17.09
2022-10-13T03:31:09.229Z,17.09
2022-10-13T03:33:35.499Z,17.09
2022-10-13T03:36:02.206Z,17.12
2022-10-13T03:38:28.487Z,17.15
2022-10-13T03:40:54.676Z,17.18
2022-10-13T03:43:20.886Z,17.22
2022-10-13T03:45:47.639Z,17.35
2022-10-13T03:48:13.935Z,17.48
2022-10-13T03:50:40.127Z,17.61
2022-10-13T03:53:06.320Z,17.71
2022-10-13T03:55:32.762Z,17.80
2022-10-13T03:57:58.998Z,17.91
2022-10-13T04:00:25.467Z,17.99
2022-10-13T04:02:51.644Z,18.06
2022-10-13T04:05:17.868Z,18.12
2022-10-13T04:07:44.112Z,18.14
2022-10-13T04:10:11.609Z,18.18
2022-10-13T04:12:37.899Z,18.19
2022-10-13T04:15:04.214Z,18.19
2022-10-13T04:17:30.515Z,18.23
2022-10-13T04:19:56.820Z,18.29
2022-10-13T04:22:23.315Z,18.39
2022-10-13T04:24:49.900Z,18.51
2022-10-13T04:27:16.184Z,18.60
2022-10-13T04:29:42.393Z,18.64
2022-10-13T04:32:08.668Z,18.68
2022-10-13T04:34:35.214Z,18.73
2022-10-13T04:37:01.492Z,18.79
2022-10-13T04:39:27.688Z,18.84
2022-10-13T04:41:54.334Z,18.87
2022-10-13T04:44:20.502Z,18.91
2022-10-13T04:46:46.805Z,18.90
2022-10-13T04:49:13.011Z,18.91
2022-10-13T04:51:39.256Z,18.90
2022-10-13T04:54:05.427Z,18.89
2022-10-13T04:56:31.657Z,18.86
2022-10-13T04:58:57.835Z,18.83
2022-10-13T05:01:24.154Z,18.81
2022-10-13T05:03:50.362Z,18.77
2022-10-13T05:06:16.592Z,18.73
2022-10-13T05:08:42.854Z,18.69
2022-10-13T05:11:09.110Z,18.65
2022-10-13T05:13:35.474Z,18.63
2022-10-13T05:16:01.714Z,18.58
2022-10-13T05:18:28.089Z,18.55
2022-10-13T05:20:54.530Z,18.54
2022-10-13T05:23:20.793Z,18.55
2022-10-13T05:25:47.043Z,18.51
2022-10-13T05:28:13.287Z,18.47
2022-10-13T05:30:39.528Z,18.42
2022-10-13T05:33:05.764Z,18.39
2022-10-13T05:35:32.092Z,18.36
2022-10-13T05:37:58.384Z,18.32
2022-10-13T05:40:24.665Z,18.29
2022-10-13T05:42:50.905Z,18.28
2022-10-13T05:45:17.178Z,18.24
2022-10-13T05:47:43.774Z,18.26
2022-10-13T05:50:10.145Z,18.27
2022-10-13T05:52:36.383Z,18.29
2022-10-13T05:55:02.603Z,18.34
2022-10-13T05:57:28.841Z,18.42
2022-10-13T05:59:55.051Z,18.49
2022-10-13T06:02:21.945Z,18.58
2022-10-13T06:04:48.514Z,18.62
2022-10-13T06:07:14.824Z,18.51
2022-10-13T06:09:41.040Z,18.77
2022-10-13T06:12:07.274Z,18.92
2022-10-13T06:14:33.521Z,19.03
2022-10-13T06:16:59.734Z,19.15
2022-10-13T06:19:26.075Z,19.28
2022-10-13T06:21:52.404Z,19.36
2022-10-13T06:24:18.702Z,19.42
2022-10-13T06:26:45.016Z,19.48
2022-10-13T06:29:11.302Z,19.50
2022-10-13T06:31:37.789Z,19.53
2022-10-13T06:34:04.095Z,19.56
2022-10-13T06:36:30.517Z,19.56
2022-10-13T06:38:56.776Z,19.60
2022-10-13T06:41:23.027Z,19.65
2022-10-13T06:43:49.249Z,19.78
2022-10-13T06:46:15.597Z,19.79
2022-10-13T06:48:41.882Z,19.85
2022-10-13T06:51:08.329Z,19.87
2022-10-13T06:53:34.517Z,19.93
2022-10-13T06:56:00.699Z,20.04
2022-10-13T06:58:26.967Z,19.94
2022-10-13T07:00:53.548Z,19.92
2022-10-13T07:03:20.040Z,19.94
2022-10-13T07:05:46.644Z,19.93
2022-10-13T07:08:12.864Z,19.91
2022-10-13T07:10:39.155Z,19.88
2022-10-13T07:13:05.372Z,19.86
2022-10-13T07:15:31.754Z,19.86
2022-10-13T07:17:58.051Z,19.83
2022-10-13T07:20:24.310Z,19.83
2022-10-13T07:22:50.879Z,19.81
2022-10-13T07:25:17.177Z,19.82
2022-10-13T07:27:45.328Z,19.84
2022-10-13T07:30:11.521Z,19.86
2022-10-13T07:32:37.859Z,19.87
2022-10-13T07:35:04.279Z,19.88
2022-10-13T07:37:30.499Z,19.90
2022-10-13T07:39:57.045Z,19.94
2022-10-13T07:42:23.261Z,19.86
2022-10-13T07:44:49.497Z,19.98
2022-10-13T07:47:15.943Z,19.98
2022-10-13T07:49:42.107Z,20.00
2022-10-13T07:52:08.471Z,20.05
2022-10-13T07:54:34.956Z,20.08
2022-10-13T07:57:01.245Z,20.06
2022-10-13T07:59:27.516Z,20.07
2022-10-13T08:01:54.124Z,20.06
2022-10-13T08:04:20.391Z,20.06
2022-10-13T08:06:46.690Z,20.06
2022-10-13T08:09:12.957Z,20.04
2022-10-13T08:11:39.184Z,20.04
2022-10-13T08:14:05.456Z,20.02
2022-10-13T08:16:31.664Z,20.02
2022-10-13T08:18:57.914Z,20.05
2022-10-13T08:21:52.819Z,20.04
2022-10-13T08:24:10.298Z,20.07
2022-10-13T08:26:36.580Z,20.09
2022-10-13T08:29:20.649Z,20.33
2022-10-13T08:34:14.285Z,20.51
2022-10-13T08:36:40.469Z,20.46
2022-10-13T08:39:06.686Z,20.36
2022-10-13T08:41:32.889Z,20.31
2022-10-13T08:44:39.620Z,20.32
2022-10-13T08:46:46.271Z,20.32
2022-10-13T08:49:12.494Z,20.35
2022-10-13T08:51:38.738Z,20.39
2022-10-13T08:54:04.919Z,20.42
2022-10-13T08:56:31.270Z,20.41
2022-10-13T08:58:57.607Z,20.41
2022-10-13T09:01:24.332Z,20.43
2022-10-13T09:03:50.730Z,20.45
2022-10-13T09:06:16.993Z,20.48
2022-10-13T09:08:43.184Z,20.51
2022-10-13T09:11:09.389Z,20.52
2022-10-13T09:13:35.614Z,20.56
2022-10-13T09:16:01.874Z,20.59
2022-10-13T09:18:28.075Z,20.64
2022-10-13T09:20:54.375Z,20.69
2022-10-13T09:23:20.583Z,20.75
2022-10-13T09:25:46.856Z,20.79
2022-10-13T09:28:13.131Z,20.84
2022-10-13T09:30:39.372Z,20.88
2022-10-13T09:33:05.577Z,20.91
2022-10-13T09:35:31.842Z,20.93
2022-10-13T09:37:58.072Z,20.97
2022-10-13T09:40:25.293Z,20.99
2022-10-13T09:42:51.548Z,21.06
2022-10-13T09:45:17.983Z,21.11
2022-10-13T09:47:44.281Z,21.16
2022-10-13T09:50:10.512Z,21.20
2022-10-13T09:52:38.081Z,21.26
2022-10-13T09:55:04.516Z,21.31
2022-10-13T09:57:30.805Z,21.39
2022-10-13T09:59:57.115Z,21.46
2022-10-13T10:02:25.073Z,21.50
2022-10-13T10:04:53.602Z,21.51
2022-10-13T10:07:20.712Z,21.56
2022-10-13T10:09:48.511Z,21.60
2022-10-13T10:12:14.877Z,21.63
2022-10-13T10:14:41.150Z,21.66
2022-10-13T10:17:07.630Z,21.70
2022-10-13T10:22:27.080Z,21.75
2022-10-13T10:24:53.718Z,21.76
2022-10-13T10:27:22.426Z,21.72
2022-10-13T10:29:55.000Z,21.70
2022-10-13T10:32:31.629Z,21.78
2022-10-13T10:35:12.299Z,21.84
2022-10-13T10:37:47.937Z,21.88
2022-10-13T10:40:15.603Z,21.90
2022-10-13T10:42:46.308Z,21.94
2022-10-13T10:45:15.284Z,21.97
2022-10-13T10:47:41.766Z,21.97
2022-10-13T10:50:08.625Z,21.95
2022-10-13T10:52:35.697Z,21.96
2022-10-13T10:55:03.804Z,22.00
2022-10-13T10:57:31.328Z,22.03
2022-10-13T10:59:57.812Z,22.07
2022-10-13T11:02:24.425Z,22.07
2022-10-13T11:04:50.927Z,22.07
2022-10-13T11:07:17.307Z,22.11
2022-10-13T11:09:43.820Z,22.14
2022-10-13T11:12:10.438Z,22.13
2022-10-13T11:14:36.871Z,22.13
2022-10-13T11:17:04.383Z,22.14
2022-10-13T11:19:31.051Z,22.16
2022-10-13T11:21:59.374Z,22.17
2022-10-13T11:24:25.885Z,22.18
2022-10-13T11:26:52.603Z,22.17
2022-10-13T11:29:19.291Z,22.15
2022-10-13T11:31:46.161Z,22.14
2022-10-13T11:34:12.681Z,22.14
2022-10-13T11:36:39.097Z,22.15
2022-10-13T11:39:05.477Z,22.16
2022-10-13T11:41:32.358Z,22.20
2022-10-13T11:43:58.918Z,22.26
2022-10-13T11:46:25.356Z,22.32
2022-10-13T11:48:51.783Z,22.35
2022-10-13T11:51:18.166Z,22.38
2022-10-13T11:53:44.819Z,22.40
2022-10-13T11:56:11.374Z,22.44
2022-10-13T11:58:37.780Z,22.47
2022-10-13T12:01:04.329Z,22.46
2022-10-13T12:03:31.548Z,22.48
2022-10-13T12:05:58.148Z,22.44
2022-10-13T12:08:24.842Z,22.40
2022-10-13T12:10:51.667Z,22.39
2022-10-13T12:13:18.383Z,22.38
2022-10-13T12:15:44.821Z,22.38
2022-10-13T12:18:11.543Z,22.42
2022-10-13T12:20:37.922Z,22.42
2022-10-13T12:23:04.526Z,22.46
2022-10-13T12:25:30.925Z,22.47
2022-10-13T12:27:57.712Z,22.47
2022-10-13T12:30:24.187Z,22.52
2022-10-13T12:32:50.779Z,22.53
2022-10-13T12:35:17.453Z,22.58
2022-10-13T12:37:44.355Z,22.62
2022-10-13T12:40:11.238Z,22.66
2022-10-13T12:42:37.731Z,22.62
2022-10-13T12:45:04.242Z,22.59
2022-10-13T12:47:31.952Z,22.56
2022-10-13T12:49:58.440Z,22.55
2022-10-13T12:52:25.215Z,22.52
2022-10-13T12:54:51.652Z,22.51
2022-10-13T12:57:18.302Z,22.51
2022-10-13T12:59:44.864Z,22.49
2022-10-13T13:02:11.495Z,22.49
2022-10-13T13:04:38.409Z,22.49
2022-10-13T13:07:04.793Z,22.49
2022-10-13T13:09:33.739Z,22.48
2022-10-13T13:12:00.148Z,22.47
2022-10-13T13:14:27.223Z,22.47
2022-10-13T13:16:59.002Z,22.46
2022-10-13T13:19:26.516Z,22.46
2022-10-13T13:24:28.877Z,22.43
2022-10-13T13:27:05.837Z,22.41
2022-10-13T13:29:32.990Z,22.39
2022-10-13T13:31:59.460Z,22.39
2022-10-13T13:34:25.859Z,22.37
2022-10-13T13:36:52.317Z,22.35
2022-10-13T13:39:19.032Z,22.34
2022-10-13T13:41:45.481Z,22.31
2022-10-13T13:44:12.321Z,22.31
2022-10-13T13:46:39.333Z,22.31
2022-10-13T13:49:06.111Z,22.31
2022-10-13T13:51:32.529Z,22.30
2022-10-13T13:53:58.905Z,22.28
2022-10-13T13:56:26.694Z,22.29
2022-10-13T13:58:53.272Z,22.26
2022-10-13T14:01:20.466Z,22.25
2022-10-13T14:03:48.069Z,22.24
2022-10-13T14:06:14.526Z,22.23
2022-10-13T14:08:41.017Z,22.21
2022-10-13T14:11:07.373Z,22.20
2022-10-13T14:13:33.897Z,22.18
2022-10-13T14:16:00.384Z,22.16
2022-10-13T14:18:26.816Z,22.15
2022-10-13T14:20:53.255Z,22.14
2022-10-13T14:23:19.697Z,22.12
2022-10-13T14:25:46.077Z,22.11
2022-10-13T14:28:15.904Z,22.10
2022-10-13T14:30:44.557Z,22.07
2022-10-13T14:33:11.120Z,22.07
2022-10-13T14:35:37.558Z,22.05
2022-10-13T14:38:04.021Z,22.04
2022-10-13T14:40:30.690Z,22.03
2022-10-13T14:42:57.241Z,22.02
2022-10-13T14:45:23.876Z,22.01
2022-10-13T14:47:50.593Z,22.00
2022-10-13T14:50:17.023Z,21.98
2022-10-13T14:52:43.612Z,21.96
2022-10-13T14:55:10.074Z,21.95
2022-10-13T14:57:36.907Z,21.94
2022-10-13T15:00:05.864Z,21.92
2022-10-13T15:02:32.460Z,21.90
2022-10-13T15:04:59.088Z,21.89
2022-10-13T15:07:27.038Z,21.87
2022-10-13T15:10:05.082Z,21.86
2022-10-13T15:12:32.184Z,21.84
2022-10-13T15:14:58.766Z,21.82
2022-10-13T15:17:25.344Z,21.80
2022-10-13T15:19:53.048Z,21.77
2022-10-13T15:22:19.875Z,21.76
2022-10-13T15:24:46.655Z,21.73
2022-10-13T15:27:13.111Z,21.71
2022-10-13T15:29:39.598Z,21.68
2022-10-13T15:32:09.037Z,21.67
2022-10-13T15:34:35.575Z,21.64
2022-10-13T15:37:02.053Z,21.63
2022-10-13T15:39:28.550Z,21.60
2022-10-13T15:41:55.584Z,21.58
2022-10-13T15:44:22.042Z,21.56
2022-10-13T15:47:06.759Z,21.53
2022-10-13T15:49:34.062Z,21.52
2022-10-13T15:52:00.508Z,21.50
2022-10-13T15:54:27.313Z,21.48
2022-10-13T15:56:53.750Z,21.46
2022-10-13T15:59:20.248Z,21.44
2022-10-13T16:01:46.694Z,21.43
2022-10-13T16:04:13.047Z,21.40
2022-10-13T16:06:39.480Z,21.38
2022-10-13T16:09:05.930Z,21.37
2022-10-13T16:11:32.359Z,21.35
2022-10-13T16:13:58.866Z,21.33
2022-10-13T16:16:25.312Z,21.30
2022-10-13T16:18:51.910Z,21.29
2022-10-13T16:21:19.174Z,21.27
2022-10-13T16:23:45.856Z,21.25
2022-10-13T16:26:12.402Z,21.24
2022-10-13T16:28:39.345Z,21.21
2022-10-13T16:31:06.033Z,21.19
2022-10-13T16:33:32.758Z,21.17
2022-10-13T16:35:59.354Z,21.16
2022-10-13T16:38:25.993Z,21.15
2022-10-13T16:40:54.594Z,21.12
2022-10-13T16:43:21.605Z,21.10
2022-10-13T16:45:59.719Z,21.08
2022-10-13T16:48:26.803Z,21.06
2022-10-13T16:50:53.187Z,21.04
2022-10-13T16:53:19.419Z,21.04
2022-10-13T16:55:45.649Z,21.03
2022-10-13T16:58:11.892Z,21.01
2022-10-13T17:00:38.290Z,20.99
2022-10-13T17:03:04.565Z,20.98
2022-10-13T17:05:30.849Z,20.96
2022-10-13T17:07:57.072Z,20.95
2022-10-13T17:10:23.273Z,20.93
2022-10-13T17:12:49.499Z,20.92
2022-10-13T17:15:15.718Z,20.91
2022-10-13T17:17:42.481Z,20.90
2022-10-13T17:20:08.657Z,20.88
2022-10-13T17:22:35.231Z,20.87
2022-10-13T17:25:01.562Z,20.86
2022-10-13T17:27:27.961Z,20.83
2022-10-13T17:29:54.297Z,20.82
2022-10-13T17:32:20.524Z,20.79
2022-10-13T17:34:46.749Z,20.79
2022-10-13T17:37:13.094Z,20.77
2022-10-13T17:39:39.324Z,20.75
2022-10-13T17:42:05.530Z,20.75
2022-10-13T17:44:31.803Z,20.74
2022-10-13T17:46:58.007Z,20.72
2022-10-13T17:49:24.198Z,20.71
2022-10-13T17:51:50.426Z,20.69
2022-10-13T17:54:16.963Z,20.68
2022-10-13T17:56:43.253Z,20.67
2022-10-13T17:59:09.508Z,20.66
2022-10-13T18:01:35.839Z,20.64
2022-10-13T18:04:02.128Z,20.64
2022-10-13T18:06:29.777Z,20.62
2022-10-13T18:08:59.190Z,20.61
2022-10-13T18:11:26.015Z,20.60
2022-10-13T18:13:52.242Z,20.59
2022-10-13T18:16:18.703Z,20.58
2022-10-13T18:18:45.014Z,20.57
2022-10-13T18:21:11.263Z,20.57
2022-10-13T18:23:37.588Z,20.55
2022-10-13T18:26:04.264Z,20.55
2022-10-13T18:28:30.558Z,20.54
2022-10-13T18:30:56.837Z,20.53
2022-10-13T18:33:23.097Z,20.53
2022-10-13T18:35:49.387Z,20.53
2022-10-13T18:38:15.649Z,20.53
2022-10-13T18:40:42.047Z,20.51
2022-10-13T18:43:08.353Z,20.50
2022-10-13T18:45:34.595Z,20.50
2022-10-13T18:48:01.488Z,20.50
2022-10-13T18:50:27.753Z,20.49
2022-10-13T18:52:54.012Z,20.48
2022-10-13T18:55:20.735Z,20.46
2022-10-13T18:57:47.184Z,20.45
2022-10-13T19:00:13.506Z,20.45
2022-10-13T19:02:39.801Z,20.45
2022-10-13T19:05:06.005Z,20.44
2022-10-13T19:07:35.653Z,20.44
2022-10-13T19:10:06.274Z,20.42
2022-10-13T19:12:32.565Z,20.42
2022-10-13T19:14:58.787Z,20.31
2022-10-13T19:17:25.097Z,20.42
2022-10-13T19:19:51.348Z,20.41
2022-10-13T19:22:17.668Z,20.40
2022-10-13T19:24:43.878Z,20.40
2022-10-13T19:27:10.600Z,20.41
2022-10-13T19:29:37.027Z,20.41
2022-10-13T19:32:03.411Z,20.39
2022-10-13T19:34:29.641Z,20.38
2022-10-13T19:36:55.946Z,20.39
2022-10-13T19:39:22.372Z,20.38
2022-10-13T19:41:48.575Z,20.36
2022-10-13T19:44:14.907Z,20.37
2022-10-13T19:46:41.394Z,20.36
2022-10-13T19:49:07.620Z,20.35
2022-10-13T19:51:33.879Z,20.34
2022-10-13T19:54:02.207Z,20.33
2022-10-13T19:56:28.493Z,20.32
2022-10-13T19:58:54.731Z,20.31
2022-10-13T20:01:21.123Z,20.32
2022-10-13T20:03:47.377Z,20.30
2022-10-13T20:06:13.858Z,20.29
2022-10-13T20:08:40.095Z,20.28
2022-10-13T20:11:09.386Z,20.28
2022-10-13T20:13:38.115Z,20.27
2022-10-13T20:16:05.115Z,20.28
2022-10-13T20:18:31.407Z,20.25
2022-10-13T20:20:57.696Z,20.25
2022-10-13T20:23:24.409Z,20.24
2022-10-13T20:25:50.719Z,20.23
2022-10-13T20:28:17.092Z,20.23
2022-10-13T20:30:43.449Z,20.23
2022-10-13T20:33:09.802Z,20.24
2022-10-13T20:35:36.050Z,20.24
2022-10-13T20:38:02.281Z,20.23
2022-10-13T20:40:28.636Z,20.24
2022-10-13T20:42:54.884Z,20.24
2022-10-13T20:45:21.914Z,20.24
2022-10-13T20:47:48.534Z,20.23
2022-10-13T20:50:14.758Z,20.23
2022-10-13T20:52:41.243Z,20.23
2022-10-13T20:55:07.665Z,20.23
2022-10-13T20:57:35.069Z,20.22
2022-10-13T21:00:01.313Z,20.22
2022-10-13T21:02:27.558Z,20.22
2022-10-13T21:04:54.032Z,20.22
2022-10-13T21:07:20.422Z,20.22
2022-10-13T21:09:51.428Z,20.21
2022-10-13T21:12:19.824Z,20.21
2022-10-13T21:14:46.056Z,20.21
2022-10-13T21:17:12.418Z,20.19
2022-10-13T21:19:39.194Z,20.20
2022-10-13T21:22:05.402Z,20.19
2022-10-13T21:24:31.605Z,20.19
2022-10-13T21:26:57.905Z,20.17
2022-10-13T21:29:24.172Z,20.17
2022-10-13T21:31:50.660Z,20.17
2022-10-13T21:34:16.874Z,20.16
2022-10-13T21:36:43.121Z,20.15
2022-10-13T21:39:09.355Z,20.13
2022-10-13T21:41:35.621Z,20.13
2022-10-13T21:44:01.857Z,20.13
2022-10-13T21:46:28.166Z,20.13
2022-10-13T21:48:54.523Z,20.13
2022-10-13T21:51:20.731Z,20.12
2022-10-13T21:53:46.965Z,20.10
2022-10-13T21:56:13.243Z,20.07
2022-10-13T21:58:39.492Z,20.04
2022-10-13T22:01:06.027Z,20.01
2022-10-13T22:03:32.331Z,19.96
2022-10-13T22:05:58.600Z,19.94
2022-10-13T22:08:37.617Z,19.92
2022-10-13T22:11:04.627Z,19.87
2022-10-13T22:13:30.898Z,19.84
2022-10-13T22:15:57.147Z,19.81
2022-10-13T22:18:23.331Z,19.79
2022-10-13T22:20:49.535Z,19.77
2022-10-13T22:23:15.812Z,19.75
2022-10-13T22:25:42.026Z,19.72
2022-10-13T22:28:08.378Z,19.70
2022-10-13T22:30:34.699Z,19.68
2022-10-13T22:33:01.011Z,19.66
2022-10-13T22:35:27.324Z,19.64
2022-10-13T22:37:53.580Z,19.62
2022-10-13T22:40:20.013Z,19.59
2022-10-13T22:42:46.436Z,19.58
2022-10-13T22:54:44.071Z,19.49
2022-10-13T22:57:10.535Z,19.47
2022-10-13T22:59:36.984Z,19.45
2022-10-13T23:02:03.307Z,19.44
2022-10-13T23:04:29.583Z,19.43
2022-10-13T23:06:55.873Z,19.42
2022-10-13T23:09:22.299Z,19.40
2022-10-13T23:11:48.555Z,19.38
2022-10-13T23:14:14.877Z,19.38
2022-10-13T23:16:41.180Z,19.36
2022-10-13T23:19:07.501Z,19.35
2022-10-13T23:21:33.834Z,19.34
2022-10-13T23:24:00.183Z,19.33
2022-10-13T23:26:26.777Z,19.31
2022-10-13T23:28:53.317Z,19.30
2022-10-13T23:31:19.674Z,19.29
2022-10-13T23:33:45.959Z,19.28
2022-10-13T23:36:12.224Z,19.26
2022-10-13T23:38:38.639Z,19.25
2022-10-13T23:41:04.864Z,19.25
2022-10-13T23:43:31.275Z,19.23
2022-10-13T23:45:57.617Z,19.22
2022-10-13T23:48:23.901Z,19.21
2022-10-13T23:50:50.195Z,19.20
2022-10-13T23:53:16.513Z,19.18
2022-10-13T23:55:42.889Z,19.16
2022-10-13T23:58:09.157Z,19.15
